sensor_id;sensor_type;location;lat;lon;timestamp;temperature;humidity
10314;DHT22;5202;49.138;10.090;2023-11-21T00:00:08;7.00;99.90
10314;DHT22;5202;49.138;10.090;2023-11-21T00:02:41;7.00;99.90
10314;DHT22;5202;49.138;10.090;2023-11-21T00:05:12;7.00;99.90
10314;DHT22;5202;49.138;10.090;2023-11-21T00:07:42;7.10;99.90
10314;DHT22;5202;49.138;10.090;2023-11-21T00:10:12;7.10;99.90
10314;DHT22;5202;49.138;10.090;2023-11-21T00:12:43;7.10;99.90
10314;DHT22;5202;49.138;10.090;2023-11-21T00:15:15;7.10;99.90
10314;DHT22;5202;49.138;10.090;2023-11-21T00:17:43;7.10;99.90
10314;DHT22;5202;49.138;10.090;2023-11-21T00:20:13;7.00;99.90
10314;DHT22;5202;49.138;10.090;2023-11-21T00:22:41;7.00;99.90
10314;DHT22;5202;49.138;10.090;2023-11-21T00:25:10;7.00;99.90
10314;DHT22;5202;49.138;10.090;2023-11-21T00:27:42;7.00;99.90
10314;DHT22;5202;49.138;10.090;2023-11-21T00:30:12;6.90;99.90
10314;DHT22;5202;49.138;10.090;2023-11-21T00:32:41;7.00;99.90
10314;DHT22;5202;49.138;10.090;2023-11-21T00:35:10;7.00;99.90
10314;DHT22;5202;49.138;10.090;2023-11-21T00:37:40;7.00;99.90
10314;DHT22;5202;49.138;10.090;2023-11-21T00:40:10;7.00;99.90
10314;DHT22;5202;49.138;10.090;2023-11-21T00:42:40;6.90;99.90
10314;DHT22;5202;49.138;10.090;2023-11-21T00:45:09;7.00;99.90
10314;DHT22;5202;49.138;10.090;2023-11-21T00:47:38;7.00;99.90
10314;DHT22;5202;49.138;10.090;2023-11-21T00:50:07;7.00;99.90
10314;DHT22;5202;49.138;10.090;2023-11-21T00:52:36;7.00;99.90
10314;DHT22;5202;49.138;10.090;2023-11-21T00:55:08;7.00;99.90
10314;DHT22;5202;49.138;10.090;2023-11-21T00:57:37;7.00;99.90
10314;DHT22;5202;49.138;10.090;2023-11-21T01:00:06;7.00;99.90
10314;DHT22;5202;49.138;10.090;2023-11-21T01:02:40;7.00;99.90
10314;DHT22;5202;49.138;10.090;2023-11-21T01:05:17;7.00;99.90
10314;DHT22;5202;49.138;10.090;2023-11-21T01:07:46;7.00;99.90
10314;DHT22;5202;49.138;10.090;2023-11-21T01:10:17;7.00;99.90
10314;DHT22;5202;49.138;10.090;2023-11-21T01:12:47;7.00;99.90
10314;DHT22;5202;49.138;10.090;2023-11-21T01:15:15;7.00;99.90
10314;DHT22;5202;49.138;10.090;2023-11-21T01:17:44;7.10;99.90
10314;DHT22;5202;49.138;10.090;2023-11-21T01:20:12;7.10;99.90
10314;DHT22;5202;49.138;10.090;2023-11-21T01:22:41;7.10;99.90
10314;DHT22;5202;49.138;10.090;2023-11-21T01:25:10;7.10;99.90
10314;DHT22;5202;49.138;10.090;2023-11-21T01:27:43;7.20;99.90
10314;DHT22;5202;49.138;10.090;2023-11-21T01:30:12;7.20;99.90
10314;DHT22;5202;49.138;10.090;2023-11-21T01:32:41;7.20;99.90
10314;DHT22;5202;49.138;10.090;2023-11-21T01:35:11;7.10;99.90
10314;DHT22;5202;49.138;10.090;2023-11-21T01:37:39;7.10;99.90
10314;DHT22;5202;49.138;10.090;2023-11-21T01:40:08;7.10;99.90
10314;DHT22;5202;49.138;10.090;2023-11-21T01:42:43;7.10;99.90
10314;DHT22;5202;49.138;10.090;2023-11-21T01:45:12;7.20;99.90
10314;DHT22;5202;49.138;10.090;2023-11-21T01:47:41;7.20;99.90
10314;DHT22;5202;49.138;10.090;2023-11-21T01:50:14;7.20;99.90
10314;DHT22;5202;49.138;10.090;2023-11-21T01:52:45;7.20;99.90
10314;DHT22;5202;49.138;10.090;2023-11-21T01:55:16;7.20;99.90
10314;DHT22;5202;49.138;10.090;2023-11-21T01:57:56;7.20;99.90
10314;DHT22;5202;49.138;10.090;2023-11-21T02:00:25;7.20;99.90
10314;DHT22;5202;49.138;10.090;2023-11-21T02:02:56;7.20;99.90
10314;DHT22;5202;49.138;10.090;2023-11-21T02:05:24;7.20;99.90
10314;DHT22;5202;49.138;10.090;2023-11-21T02:07:53;7.20;99.90
10314;DHT22;5202;49.138;10.090;2023-11-21T02:10:21;7.10;99.90
10314;DHT22;5202;49.138;10.090;2023-11-21T02:12:51;7.10;99.90
10314;DHT22;5202;49.138;10.090;2023-11-21T02:15:22;7.20;99.90
10314;DHT22;5202;49.138;10.090;2023-11-21T02:17:54;7.20;99.90
10314;DHT22;5202;49.138;10.090;2023-11-21T02:20:25;7.20;99.90
10314;DHT22;5202;49.138;10.090;2023-11-21T02:22:58;7.20;99.90
10314;DHT22;5202;49.138;10.090;2023-11-21T02:25:29;7.20;99.90
10314;DHT22;5202;49.138;10.090;2023-11-21T02:28:00;7.20;99.90
10314;DHT22;5202;49.138;10.090;2023-11-21T02:30:30;7.20;99.90
10314;DHT22;5202;49.138;10.090;2023-11-21T02:32:59;7.20;99.90
10314;DHT22;5202;49.138;10.090;2023-11-21T02:35:30;7.10;99.90
10314;DHT22;5202;49.138;10.090;2023-11-21T02:38:00;7.20;99.90
10314;DHT22;5202;49.138;10.090;2023-11-21T02:40:29;7.20;99.90
10314;DHT22;5202;49.138;10.090;2023-11-21T02:42:58;7.10;99.90
10314;DHT22;5202;49.138;10.090;2023-11-21T02:45:27;7.10;99.90
10314;DHT22;5202;49.138;10.090;2023-11-21T02:47:56;7.20;99.90
10314;DHT22;5202;49.138;10.090;2023-11-21T02:50:25;7.20;99.90
10314;DHT22;5202;49.138;10.090;2023-11-21T02:52:54;7.20;99.90
10314;DHT22;5202;49.138;10.090;2023-11-21T02:55:26;7.20;99.90
10314;DHT22;5202;49.138;10.090;2023-11-21T02:57:55;7.20;99.90
10314;DHT22;5202;49.138;10.090;2023-11-21T03:00:24;7.20;99.90
10314;DHT22;5202;49.138;10.090;2023-11-21T03:02:55;7.20;99.90
10314;DHT22;5202;49.138;10.090;2023-11-21T03:05:25;7.30;99.90
10314;DHT22;5202;49.138;10.090;2023-11-21T03:08:03;7.20;99.90
10314;DHT22;5202;49.138;10.090;2023-11-21T03:10:33;7.20;99.90
10314;DHT22;5202;49.138;10.090;2023-11-21T03:13:02;7.20;99.90
10314;DHT22;5202;49.138;10.090;2023-11-21T03:15:31;7.30;99.90
10314;DHT22;5202;49.138;10.090;2023-11-21T03:18:00;7.30;99.90
10314;DHT22;5202;49.138;10.090;2023-11-21T03:20:29;7.30;99.90
10314;DHT22;5202;49.138;10.090;2023-11-21T03:22:57;7.30;99.90
10314;DHT22;5202;49.138;10.090;2023-11-21T03:25:28;7.30;99.90
10314;DHT22;5202;49.138;10.090;2023-11-21T03:27:58;7.30;99.90
10314;DHT22;5202;49.138;10.090;2023-11-21T03:30:26;7.30;99.90
10314;DHT22;5202;49.138;10.090;2023-11-21T03:32:54;7.30;99.90
10314;DHT22;5202;49.138;10.090;2023-11-21T03:35:23;7.30;99.90
10314;DHT22;5202;49.138;10.090;2023-11-21T03:37:52;7.30;99.90
10314;DHT22;5202;49.138;10.090;2023-11-21T03:40:22;7.30;99.90
10314;DHT22;5202;49.138;10.090;2023-11-21T03:42:50;7.30;99.90
10314;DHT22;5202;49.138;10.090;2023-11-21T03:45:21;7.30;99.90
10314;DHT22;5202;49.138;10.090;2023-11-21T03:47:50;7.30;99.90
10314;DHT22;5202;49.138;10.090;2023-11-21T03:50:18;7.40;99.90
10314;DHT22;5202;49.138;10.090;2023-11-21T03:52:47;7.40;99.90
10314;DHT22;5202;49.138;10.090;2023-11-21T03:55:15;7.30;99.90
10314;DHT22;5202;49.138;10.090;2023-11-21T03:57:44;7.30;99.90
10314;DHT22;5202;49.138;10.090;2023-11-21T04:00:13;7.30;99.90
10314;DHT22;5202;49.138;10.090;2023-11-21T04:02:43;7.30;99.90
10314;DHT22;5202;49.138;10.090;2023-11-21T04:05:11;7.30;99.90
10314;DHT22;5202;49.138;10.090;2023-11-21T04:07:40;7.20;99.90
10314;DHT22;5202;49.138;10.090;2023-11-21T04:10:09;7.20;99.90
10314;DHT22;5202;49.138;10.090;2023-11-21T04:12:40;7.30;99.90
10314;DHT22;5202;49.138;10.090;2023-11-21T04:15:09;7.30;99.90
10314;DHT22;5202;49.138;10.090;2023-11-21T04:17:39;7.30;99.90
10314;DHT22;5202;49.138;10.090;2023-11-21T04:20:10;7.30;99.90
10314;DHT22;5202;49.138;10.090;2023-11-21T04:22:38;7.30;99.90
10314;DHT22;5202;49.138;10.090;2023-11-21T04:25:13;7.30;99.90
10314;DHT22;5202;49.138;10.090;2023-11-21T04:27:45;7.30;99.90
10314;DHT22;5202;49.138;10.090;2023-11-21T04:30:14;7.40;99.90
10314;DHT22;5202;49.138;10.090;2023-11-21T04:32:43;7.30;99.90
10314;DHT22;5202;49.138;10.090;2023-11-21T04:35:13;7.30;99.90
10314;DHT22;5202;49.138;10.090;2023-11-21T04:37:41;7.30;99.90
10314;DHT22;5202;49.138;10.090;2023-11-21T04:40:11;7.30;99.90
10314;DHT22;5202;49.138;10.090;2023-11-21T04:42:39;7.30;99.90
10314;DHT22;5202;49.138;10.090;2023-11-21T04:45:09;7.30;99.90
10314;DHT22;5202;49.138;10.090;2023-11-21T04:47:40;7.40;99.90
10314;DHT22;5202;49.138;10.090;2023-11-21T04:50:11;7.30;99.90
10314;DHT22;5202;49.138;10.090;2023-11-21T04:52:40;7.30;99.90
10314;DHT22;5202;49.138;10.090;2023-11-21T04:55:09;7.20;99.90
10314;DHT22;5202;49.138;10.090;2023-11-21T04:57:38;7.30;99.90
10314;DHT22;5202;49.138;10.090;2023-11-21T05:00:10;7.30;99.90
10314;DHT22;5202;49.138;10.090;2023-11-21T05:02:40;7.30;99.90
10314;DHT22;5202;49.138;10.090;2023-11-21T05:05:13;7.30;99.90
10314;DHT22;5202;49.138;10.090;2023-11-21T05:07:42;7.30;99.90
10314;DHT22;5202;49.138;10.090;2023-11-21T05:10:11;7.40;99.90
10314;DHT22;5202;49.138;10.090;2023-11-21T05:12:42;7.30;99.90
10314;DHT22;5202;49.138;10.090;2023-11-21T05:15:14;7.40;99.90
10314;DHT22;5202;49.138;10.090;2023-11-21T05:17:43;7.40;99.90
10314;DHT22;5202;49.138;10.090;2023-11-21T05:20:14;7.40;99.90
10314;DHT22;5202;49.138;10.090;2023-11-21T05:22:48;7.40;99.90
10314;DHT22;5202;49.138;10.090;2023-11-21T05:25:16;7.40;99.90
10314;DHT22;5202;49.138;10.090;2023-11-21T05:27:47;7.40;99.90
10314;DHT22;5202;49.138;10.090;2023-11-21T05:30:16;7.40;99.90
10314;DHT22;5202;49.138;10.090;2023-11-21T05:32:44;7.40;99.90
10314;DHT22;5202;49.138;10.090;2023-11-21T05:35:16;7.40;99.90
10314;DHT22;5202;49.138;10.090;2023-11-21T05:37:45;7.40;99.90
10314;DHT22;5202;49.138;10.090;2023-11-21T05:40:15;7.40;99.90
10314;DHT22;5202;49.138;10.090;2023-11-21T05:42:44;7.40;99.90
10314;DHT22;5202;49.138;10.090;2023-11-21T05:45:12;7.40;99.90
10314;DHT22;5202;49.138;10.090;2023-11-21T05:47:44;7.40;99.90
10314;DHT22;5202;49.138;10.090;2023-11-21T05:50:16;7.40;99.90
10314;DHT22;5202;49.138;10.090;2023-11-21T05:52:46;7.40;99.90
10314;DHT22;5202;49.138;10.090;2023-11-21T05:55:15;7.40;99.90
10314;DHT22;5202;49.138;10.090;2023-11-21T05:57:44;7.30;99.90
10314;DHT22;5202;49.138;10.090;2023-11-21T06:00:14;7.30;99.90
10314;DHT22;5202;49.138;10.090;2023-11-21T06:02:48;7.20;99.90
10314;DHT22;5202;49.138;10.090;2023-11-21T06:05:24;7.20;99.90
10314;DHT22;5202;49.138;10.090;2023-11-21T06:07:54;7.30;99.90
10314;DHT22;5202;49.138;10.090;2023-11-21T06:10:26;7.30;99.90
10314;DHT22;5202;49.138;10.090;2023-11-21T06:12:56;7.20;99.90
10314;DHT22;5202;49.138;10.090;2023-11-21T06:15:29;7.20;99.90
10314;DHT22;5202;49.138;10.090;2023-11-21T06:17:58;7.20;99.90
10314;DHT22;5202;49.138;10.090;2023-11-21T06:20:28;7.20;99.90
10314;DHT22;5202;49.138;10.090;2023-11-21T06:22:57;7.30;99.90
10314;DHT22;5202;49.138;10.090;2023-11-21T06:25:30;7.30;99.90
10314;DHT22;5202;49.138;10.090;2023-11-21T06:28:00;7.30;99.90
10314;DHT22;5202;49.138;10.090;2023-11-21T06:30:28;7.40;99.90
10314;DHT22;5202;49.138;10.090;2023-11-21T06:32:57;7.40;99.90
10314;DHT22;5202;49.138;10.090;2023-11-21T06:35:28;7.40;99.90
10314;DHT22;5202;49.138;10.090;2023-11-21T06:37:59;7.40;99.90
10314;DHT22;5202;49.138;10.090;2023-11-21T06:40:28;7.40;99.90
10314;DHT22;5202;49.138;10.090;2023-11-21T06:42:57;7.40;99.90
10314;DHT22;5202;49.138;10.090;2023-11-21T06:45:26;7.40;99.90
10314;DHT22;5202;49.138;10.090;2023-11-21T06:47:55;7.40;99.90
10314;DHT22;5202;49.138;10.090;2023-11-21T06:50:24;7.40;99.90
10314;DHT22;5202;49.138;10.090;2023-11-21T06:52:55;7.40;99.90
10314;DHT22;5202;49.138;10.090;2023-11-21T06:55:23;7.50;99.90
10314;DHT22;5202;49.138;10.090;2023-11-21T06:57:52;7.40;99.90
10314;DHT22;5202;49.138;10.090;2023-11-21T07:00:20;7.40;99.90
10314;DHT22;5202;49.138;10.090;2023-11-21T07:02:49;7.40;99.90
10314;DHT22;5202;49.138;10.090;2023-11-21T07:05:20;7.40;99.90
10314;DHT22;5202;49.138;10.090;2023-11-21T07:07:50;7.40;99.90
10314;DHT22;5202;49.138;10.090;2023-11-21T07:10:22;7.40;99.90
10314;DHT22;5202;49.138;10.090;2023-11-21T07:12:52;7.40;99.90
10314;DHT22;5202;49.138;10.090;2023-11-21T07:15:21;7.30;99.90
10314;DHT22;5202;49.138;10.090;2023-11-21T07:17:49;7.30;99.90
10314;DHT22;5202;49.138;10.090;2023-11-21T07:20:19;7.30;99.90
10314;DHT22;5202;49.138;10.090;2023-11-21T07:22:48;7.20;99.90
10314;DHT22;5202;49.138;10.090;2023-11-21T07:25:17;7.30;99.90
10314;DHT22;5202;49.138;10.090;2023-11-21T07:27:47;7.30;99.90
10314;DHT22;5202;49.138;10.090;2023-11-21T07:30:16;7.30;99.90
10314;DHT22;5202;49.138;10.090;2023-11-21T07:32:46;7.30;99.90
10314;DHT22;5202;49.138;10.090;2023-11-21T07:35:15;7.30;99.90
10314;DHT22;5202;49.138;10.090;2023-11-21T07:37:44;7.30;99.90
10314;DHT22;5202;49.138;10.090;2023-11-21T07:40:15;7.30;99.90
10314;DHT22;5202;49.138;10.090;2023-11-21T07:42:46;7.40;99.90
10314;DHT22;5202;49.138;10.090;2023-11-21T07:45:16;7.40;99.90
10314;DHT22;5202;49.138;10.090;2023-11-21T07:47:44;7.40;99.90
10314;DHT22;5202;49.138;10.090;2023-11-21T07:50:13;7.40;99.90
10314;DHT22;5202;49.138;10.090;2023-11-21T07:52:42;7.50;99.90
10314;DHT22;5202;49.138;10.090;2023-11-21T07:55:10;7.40;99.90
10314;DHT22;5202;49.138;10.090;2023-11-21T07:57:40;7.40;99.90
10314;DHT22;5202;49.138;10.090;2023-11-21T08:00:12;7.40;99.90
10314;DHT22;5202;49.138;10.090;2023-11-21T08:03:06;7.40;99.90
10314;DHT22;5202;49.138;10.090;2023-11-21T08:05:35;7.50;99.90
10314;DHT22;5202;49.138;10.090;2023-11-21T08:08:07;7.40;99.90
10314;DHT22;5202;49.138;10.090;2023-11-21T08:10:36;7.50;99.90
10314;DHT22;5202;49.138;10.090;2023-11-21T08:13:06;7.40;99.90
10314;DHT22;5202;49.138;10.090;2023-11-21T08:15:38;7.40;99.90
10314;DHT22;5202;49.138;10.090;2023-11-21T08:18:07;7.40;99.90
10314;DHT22;5202;49.138;10.090;2023-11-21T08:20:38;7.50;99.90
10314;DHT22;5202;49.138;10.090;2023-11-21T08:23:07;7.50;99.90
10314;DHT22;5202;49.138;10.090;2023-11-21T08:25:36;7.50;99.90
10314;DHT22;5202;49.138;10.090;2023-11-21T08:28:06;7.60;99.90
10314;DHT22;5202;49.138;10.090;2023-11-21T08:30:34;7.50;99.90
10314;DHT22;5202;49.138;10.090;2023-11-21T08:33:04;7.70;99.90
10314;DHT22;5202;49.138;10.090;2023-11-21T08:35:33;7.70;99.90
10314;DHT22;5202;49.138;10.090;2023-11-21T08:38:02;7.70;99.90
10314;DHT22;5202;49.138;10.090;2023-11-21T08:40:30;7.70;99.90
10314;DHT22;5202;49.138;10.090;2023-11-21T08:43:00;7.70;99.90
10314;DHT22;5202;49.138;10.090;2023-11-21T08:45:33;7.80;99.90
10314;DHT22;5202;49.138;10.090;2023-11-21T08:48:05;7.70;99.90
10314;DHT22;5202;49.138;10.090;2023-11-21T08:50:34;7.70;99.90
10314;DHT22;5202;49.138;10.090;2023-11-21T08:53:02;7.70;99.90
10314;DHT22;5202;49.138;10.090;2023-11-21T08:55:33;7.80;99.90
10314;DHT22;5202;49.138;10.090;2023-11-21T08:58:04;7.80;99.90
10314;DHT22;5202;49.138;10.090;2023-11-21T09:00:33;7.80;99.90
10314;DHT22;5202;49.138;10.090;2023-11-21T09:03:07;7.80;99.90
10314;DHT22;5202;49.138;10.090;2023-11-21T09:05:37;7.90;99.90
10314;DHT22;5202;49.138;10.090;2023-11-21T09:08:08;7.80;99.90
10314;DHT22;5202;49.138;10.090;2023-11-21T09:10:37;7.80;99.90
10314;DHT22;5202;49.138;10.090;2023-11-21T09:13:10;7.80;99.90
10314;DHT22;5202;49.138;10.090;2023-11-21T09:15:40;7.80;99.90
10314;DHT22;5202;49.138;10.090;2023-11-21T09:18:11;7.80;99.90
10314;DHT22;5202;49.138;10.090;2023-11-21T09:20:42;7.80;99.90
10314;DHT22;5202;49.138;10.090;2023-11-21T09:23:12;7.80;99.90
10314;DHT22;5202;49.138;10.090;2023-11-21T09:25:43;7.90;99.90
10314;DHT22;5202;49.138;10.090;2023-11-21T09:28:14;8.00;99.90
10314;DHT22;5202;49.138;10.090;2023-11-21T09:30:42;8.10;99.90
10314;DHT22;5202;49.138;10.090;2023-11-21T09:33:12;8.10;99.90
10314;DHT22;5202;49.138;10.090;2023-11-21T09:35:42;8.10;99.90
10314;DHT22;5202;49.138;10.090;2023-11-21T09:38:11;8.10;99.90
10314;DHT22;5202;49.138;10.090;2023-11-21T09:40:40;8.10;99.90
10314;DHT22;5202;49.138;10.090;2023-11-21T09:43:14;8.10;99.90
10314;DHT22;5202;49.138;10.090;2023-11-21T09:45:46;8.20;99.90
10314;DHT22;5202;49.138;10.090;2023-11-21T09:48:20;8.20;99.90
10314;DHT22;5202;49.138;10.090;2023-11-21T09:50:51;8.30;99.90
10314;DHT22;5202;49.138;10.090;2023-11-21T09:53:23;8.30;99.90
10314;DHT22;5202;49.138;10.090;2023-11-21T09:55:52;8.30;99.90
10314;DHT22;5202;49.138;10.090;2023-11-21T09:58:25;8.30;99.90
10314;DHT22;5202;49.138;10.090;2023-11-21T10:00:57;8.30;99.90
10314;DHT22;5202;49.138;10.090;2023-11-21T10:03:29;8.30;99.90
10314;DHT22;5202;49.138;10.090;2023-11-21T10:05:58;8.30;99.90
10314;DHT22;5202;49.138;10.090;2023-11-21T10:08:32;8.30;99.90
10314;DHT22;5202;49.138;10.090;2023-11-21T10:11:17;8.30;99.90
10314;DHT22;5202;49.138;10.090;2023-11-21T10:13:49;8.40;99.90
10314;DHT22;5202;49.138;10.090;2023-11-21T10:16:22;8.40;99.90
10314;DHT22;5202;49.138;10.090;2023-11-21T10:18:57;8.50;99.90
10314;DHT22;5202;49.138;10.090;2023-11-21T10:21:38;8.50;99.90
10314;DHT22;5202;49.138;10.090;2023-11-21T10:24:07;8.40;99.90
10314;DHT22;5202;49.138;10.090;2023-11-21T10:26:39;8.40;99.90
10314;DHT22;5202;49.138;10.090;2023-11-21T10:29:19;8.40;99.90
10314;DHT22;5202;49.138;10.090;2023-11-21T10:31:49;8.30;99.90
10314;DHT22;5202;49.138;10.090;2023-11-21T10:34:22;8.30;99.90
10314;DHT22;5202;49.138;10.090;2023-11-21T10:36:50;8.20;99.90
10314;DHT22;5202;49.138;10.090;2023-11-21T10:39:20;8.20;99.90
10314;DHT22;5202;49.138;10.090;2023-11-21T10:41:51;8.10;99.90
10314;DHT22;5202;49.138;10.090;2023-11-21T10:44:19;8.20;99.90
10314;DHT22;5202;49.138;10.090;2023-11-21T10:46:51;8.20;99.90
10314;DHT22;5202;49.138;10.090;2023-11-21T10:49:26;8.30;99.90
10314;DHT22;5202;49.138;10.090;2023-11-21T10:51:55;8.30;99.90
10314;DHT22;5202;49.138;10.090;2023-11-21T10:54:25;8.30;99.90
10314;DHT22;5202;49.138;10.090;2023-11-21T10:56:58;8.30;99.90
10314;DHT22;5202;49.138;10.090;2023-11-21T10:59:30;8.40;99.90
10314;DHT22;5202;49.138;10.090;2023-11-21T11:02:01;8.30;99.90
10314;DHT22;5202;49.138;10.090;2023-11-21T11:04:39;8.30;99.90
10314;DHT22;5202;49.138;10.090;2023-11-21T11:07:08;8.30;99.90
10314;DHT22;5202;49.138;10.090;2023-11-21T11:09:39;8.30;99.90
10314;DHT22;5202;49.138;10.090;2023-11-21T11:12:08;8.30;99.90
10314;DHT22;5202;49.138;10.090;2023-11-21T11:14:40;8.30;99.90
10314;DHT22;5202;49.138;10.090;2023-11-21T11:17:10;8.30;99.90
10314;DHT22;5202;49.138;10.090;2023-11-21T11:19:41;8.40;99.90
10314;DHT22;5202;49.138;10.090;2023-11-21T11:22:25;8.40;99.90
10314;DHT22;5202;49.138;10.090;2023-11-21T11:25:24;8.40;99.90
10314;DHT22;5202;49.138;10.090;2023-11-21T11:28:02;8.40;99.90
10314;DHT22;5202;49.138;10.090;2023-11-21T11:30:41;8.40;99.90
10314;DHT22;5202;49.138;10.090;2023-11-21T11:33:25;8.40;99.90
10314;DHT22;5202;49.138;10.090;2023-11-21T11:36:06;8.30;99.90
10314;DHT22;5202;49.138;10.090;2023-11-21T11:38:45;8.40;99.90
10314;DHT22;5202;49.138;10.090;2023-11-21T11:41:25;8.40;99.90
10314;DHT22;5202;49.138;10.090;2023-11-21T11:43:54;8.40;99.90
10314;DHT22;5202;49.138;10.090;2023-11-21T11:46:40;8.50;99.90
10314;DHT22;5202;49.138;10.090;2023-11-21T11:49:09;8.60;99.90
10314;DHT22;5202;49.138;10.090;2023-11-21T11:51:39;8.70;99.90
10314;DHT22;5202;49.138;10.090;2023-11-21T11:54:08;8.80;99.90
10314;DHT22;5202;49.138;10.090;2023-11-21T11:56:38;8.80;99.90
10314;DHT22;5202;49.138;10.090;2023-11-21T11:59:07;8.90;99.90
10314;DHT22;5202;49.138;10.090;2023-11-21T12:01:38;9.00;99.90
10314;DHT22;5202;49.138;10.090;2023-11-21T12:04:26;9.10;99.90
10314;DHT22;5202;49.138;10.090;2023-11-21T12:07:13;9.20;99.90
10314;DHT22;5202;49.138;10.090;2023-11-21T12:09:42;9.20;99.90
10314;DHT22;5202;49.138;10.090;2023-11-21T12:12:10;9.20;99.90
10314;DHT22;5202;49.138;10.090;2023-11-21T12:14:38;9.20;99.90
10314;DHT22;5202;49.138;10.090;2023-11-21T12:17:11;9.20;99.90
10314;DHT22;5202;49.138;10.090;2023-11-21T12:19:43;9.10;99.90
10314;DHT22;5202;49.138;10.090;2023-11-21T12:22:16;9.00;99.90
10314;DHT22;5202;49.138;10.090;2023-11-21T12:24:46;9.00;99.90
10314;DHT22;5202;49.138;10.090;2023-11-21T12:27:15;8.80;99.90
10314;DHT22;5202;49.138;10.090;2023-11-21T12:29:43;8.80;99.90
10314;DHT22;5202;49.138;10.090;2023-11-21T12:32:12;8.80;99.90
10314;DHT22;5202;49.138;10.090;2023-11-21T12:34:43;8.70;99.90
10314;DHT22;5202;49.138;10.090;2023-11-21T12:37:13;8.70;99.90
10314;DHT22;5202;49.138;10.090;2023-11-21T12:39:43;8.70;99.90
10314;DHT22;5202;49.138;10.090;2023-11-21T12:42:11;8.60;99.90
10314;DHT22;5202;49.138;10.090;2023-11-21T12:44:46;8.70;99.90
10314;DHT22;5202;49.138;10.090;2023-11-21T12:47:17;8.70;99.90
10314;DHT22;5202;49.138;10.090;2023-11-21T12:49:49;8.70;99.90
10314;DHT22;5202;49.138;10.090;2023-11-21T12:52:17;8.70;99.90
10314;DHT22;5202;49.138;10.090;2023-11-21T12:54:47;8.70;99.90
10314;DHT22;5202;49.138;10.090;2023-11-21T12:57:16;8.70;99.90
10314;DHT22;5202;49.138;10.090;2023-11-21T12:59:45;8.80;99.90
10314;DHT22;5202;49.138;10.090;2023-11-21T13:02:14;8.70;99.90
10314;DHT22;5202;49.138;10.090;2023-11-21T13:04:51;8.80;99.90
10314;DHT22;5202;49.138;10.090;2023-11-21T13:07:21;8.70;99.90
10314;DHT22;5202;49.138;10.090;2023-11-21T13:09:53;8.70;99.90
10314;DHT22;5202;49.138;10.090;2023-11-21T13:12:24;8.80;99.90
10314;DHT22;5202;49.138;10.090;2023-11-21T13:14:52;8.80;99.90
10314;DHT22;5202;49.138;10.090;2023-11-21T13:17:21;8.80;99.90
10314;DHT22;5202;49.138;10.090;2023-11-21T13:19:52;8.80;99.90
10314;DHT22;5202;49.138;10.090;2023-11-21T13:22:21;8.80;99.90
10314;DHT22;5202;49.138;10.090;2023-11-21T13:24:56;8.80;99.90
10314;DHT22;5202;49.138;10.090;2023-11-21T13:27:24;8.90;99.90
10314;DHT22;5202;49.138;10.090;2023-11-21T13:29:54;8.90;99.90
10314;DHT22;5202;49.138;10.090;2023-11-21T13:32:23;9.00;99.90
10314;DHT22;5202;49.138;10.090;2023-11-21T13:34:53;9.00;99.90
10314;DHT22;5202;49.138;10.090;2023-11-21T13:37:22;9.00;99.90
10314;DHT22;5202;49.138;10.090;2023-11-21T13:39:52;9.00;99.90
10314;DHT22;5202;49.138;10.090;2023-11-21T13:42:23;9.00;99.90
10314;DHT22;5202;49.138;10.090;2023-11-21T13:44:56;9.10;99.90
10314;DHT22;5202;49.138;10.090;2023-11-21T13:47:25;9.10;99.90
10314;DHT22;5202;49.138;10.090;2023-11-21T13:49:56;9.10;99.90
10314;DHT22;5202;49.138;10.090;2023-11-21T13:52:27;9.20;99.90
10314;DHT22;5202;49.138;10.090;2023-11-21T13:54:58;9.20;99.90
10314;DHT22;5202;49.138;10.090;2023-11-21T13:57:31;9.20;99.90
10314;DHT22;5202;49.138;10.090;2023-11-21T14:00:00;9.10;99.90
10314;DHT22;5202;49.138;10.090;2023-11-21T14:02:30;9.10;99.90
10314;DHT22;5202;49.138;10.090;2023-11-21T14:05:05;9.00;99.90
10314;DHT22;5202;49.138;10.090;2023-11-21T14:07:36;9.00;99.90
10314;DHT22;5202;49.138;10.090;2023-11-21T14:10:07;8.90;99.90
10314;DHT22;5202;49.138;10.090;2023-11-21T14:12:41;8.90;99.90
10314;DHT22;5202;49.138;10.090;2023-11-21T14:15:10;8.90;99.90
10314;DHT22;5202;49.138;10.090;2023-11-21T14:17:44;8.90;99.90
10314;DHT22;5202;49.138;10.090;2023-11-21T14:20:12;8.90;99.90
10314;DHT22;5202;49.138;10.090;2023-11-21T14:22:44;8.90;99.90
10314;DHT22;5202;49.138;10.090;2023-11-21T14:25:15;8.90;99.90
10314;DHT22;5202;49.138;10.090;2023-11-21T14:27:46;8.80;99.90
10314;DHT22;5202;49.138;10.090;2023-11-21T14:30:14;8.80;99.90
10314;DHT22;5202;49.138;10.090;2023-11-21T14:32:46;8.80;99.90
10314;DHT22;5202;49.138;10.090;2023-11-21T14:35:15;8.80;99.90
10314;DHT22;5202;49.138;10.090;2023-11-21T14:37:44;8.80;99.90
10314;DHT22;5202;49.138;10.090;2023-11-21T14:40:14;8.70;99.90
10314;DHT22;5202;49.138;10.090;2023-11-21T14:42:47;8.70;99.90
10314;DHT22;5202;49.138;10.090;2023-11-21T14:45:16;8.70;99.90
10314;DHT22;5202;49.138;10.090;2023-11-21T14:47:48;8.70;99.90
10314;DHT22;5202;49.138;10.090;2023-11-21T14:50:24;8.70;99.90
10314;DHT22;5202;49.138;10.090;2023-11-21T14:53:18;8.60;99.90
10314;DHT22;5202;49.138;10.090;2023-11-21T14:56:09;8.60;99.90
10314;DHT22;5202;49.138;10.090;2023-11-21T14:58:38;8.60;99.90
10314;DHT22;5202;49.138;10.090;2023-11-21T15:01:07;8.60;99.90
10314;DHT22;5202;49.138;10.090;2023-11-21T15:03:38;8.60;99.90
10314;DHT22;5202;49.138;10.090;2023-11-21T15:06:17;8.60;99.90
10314;DHT22;5202;49.138;10.090;2023-11-21T15:08:54;8.60;99.90
10314;DHT22;5202;49.138;10.090;2023-11-21T15:11:45;8.60;99.90
10314;DHT22;5202;49.138;10.090;2023-11-21T15:14:15;8.60;99.90
10314;DHT22;5202;49.138;10.090;2023-11-21T15:16:50;8.50;99.90
10314;DHT22;5202;49.138;10.090;2023-11-21T15:19:20;8.60;99.90
10314;DHT22;5202;49.138;10.090;2023-11-21T15:21:53;8.50;99.90
10314;DHT22;5202;49.138;10.090;2023-11-21T15:24:22;8.50;99.90
10314;DHT22;5202;49.138;10.090;2023-11-21T15:26:51;8.50;99.90
10314;DHT22;5202;49.138;10.090;2023-11-21T15:29:21;8.50;99.90
10314;DHT22;5202;49.138;10.090;2023-11-21T15:31:51;8.40;99.90
10314;DHT22;5202;49.138;10.090;2023-11-21T15:34:23;8.40;99.90
10314;DHT22;5202;49.138;10.090;2023-11-21T15:36:53;8.40;99.90
10314;DHT22;5202;49.138;10.090;2023-11-21T15:39:21;8.30;99.90
10314;DHT22;5202;49.138;10.090;2023-11-21T15:41:54;8.20;99.90
10314;DHT22;5202;49.138;10.090;2023-11-21T15:44:24;8.20;99.90
10314;DHT22;5202;49.138;10.090;2023-11-21T15:46:53;8.20;99.90
10314;DHT22;5202;49.138;10.090;2023-11-21T15:49:22;8.20;99.90
10314;DHT22;5202;49.138;10.090;2023-11-21T15:51:51;8.20;99.90
10314;DHT22;5202;49.138;10.090;2023-11-21T15:54:22;8.20;99.90
10314;DHT22;5202;49.138;10.090;2023-11-21T15:56:52;8.20;99.90
10314;DHT22;5202;49.138;10.090;2023-11-21T15:59:25;8.20;99.90
10314;DHT22;5202;49.138;10.090;2023-11-21T16:01:57;8.20;99.90
10314;DHT22;5202;49.138;10.090;2023-11-21T16:04:26;8.10;99.90
10314;DHT22;5202;49.138;10.090;2023-11-21T16:06:55;8.10;99.90